createdAt,value
2022-09-03T00:11:50.152Z,2.20
2022-09-03T00:42:07.956Z,2.15
2022-09-03T01:12:20.223Z,2.63
2022-09-03T01:42:33.391Z,1.88
2022-09-03T02:12:38.478Z,1.98
2022-09-03T02:42:42.797Z,3.17
2022-09-03T03:12:46.926Z,1.58
2022-09-03T03:42:51.044Z,3.25
2022-09-03T04:12:56.425Z,3.55
2022-09-03T04:43:00.866Z,3.25
2022-09-03T05:13:06.506Z,4.05
2022-09-03T05:43:10.647Z,2.47
2022-09-03T06:13:14.914Z,2.03
2022-09-03T06:43:19.219Z,3.30
2022-09-03T07:13:24.563Z,1.98
2022-09-03T07:43:29.341Z,1.75
2022-09-03T08:13:33.961Z,2.53
2022-09-03T08:43:47.772Z,3.10
2022-09-03T09:13:57.592Z,3.42
2022-09-03T09:44:06.234Z,3.33
2022-09-03T10:14:18.161Z,6.20
2022-09-03T10:44:35.329Z,4.28
2022-09-03T11:14:42.129Z,3.92
2022-09-03T11:44:51.484Z,2.28
2022-09-03T12:15:03.310Z,3.88
2022-09-03T12:45:10.613Z,3.42
2022-09-03T13:15:23.282Z,4.57
2022-09-03T13:45:32.443Z,3.50
2022-09-03T14:15:45.772Z,3.03
2022-09-03T14:46:19.952Z,3.10
2022-09-03T15:16:32.753Z,2.95
2022-09-03T15:46:57.566Z,2.85
2022-09-03T16:17:04.826Z,3.72
2022-09-03T16:47:12.809Z,3.90
2022-09-03T17:17:28.044Z,6.68
2022-09-03T17:48:07.393Z,4.75
2022-09-03T18:18:18.406Z,6.47
2022-09-03T18:48:47.363Z,6.75
2022-09-03T19:19:26.660Z,6.10
2022-09-03T19:49:59.949Z,4.90
2022-09-03T20:20:14.086Z,2.30
2022-09-03T20:50:25.959Z,2.10
2022-09-03T21:20:36.259Z,2.67
2022-09-03T21:50:58.584Z,3.20
2022-09-03T22:21:13.301Z,4.03
2022-09-03T22:51:21.661Z,3.38
2022-09-03T23:21:29.945Z,4.25
2022-09-03T23:51:44.889Z,3.85
